Thunder radar more information blitzortung!


Löydät sääaseman tiedot myös:

European Weather Network

Finland Weather Exchange

Weather Underground

AWEKAS



Weather Underground säähistoriasivu

Päivittäin yhteenveto Helmikuu 6, 2017 Yksiköt:  Molemmat    Englantilaiset   Metriset
« Edellinen Päivä
Seuraava Päivä »
Päivittäin Viikoittain Kuukausittain Vuosittain Mukautettu
  Korkea: Matala: Keskiarvo:
Lämpötila: TemperatureC °F /  -17.8 °C -15.7 °F /  -26.5 °C -8.8 °F /  -22.7 °C
Kastepiste: DewpointC °F /  -17.8 °C -17.3 °F /  -27.4 °C -10.5 °F /  -23.6 °C
Kosteus: Humidity % 81 % 86 %
Tuulen nopeus: WindSpeedKMH mph /  0 km/h - 0.3 mph /  0.5 km/h
Tuulenpuuska: WindSpeedGustKMH mph /  0 km/h - -
Tuuli:- - SSE
Ilmanpaine: PressurehPa in /  0 hPa 1030.4 in /  34889.3 hPa -
Sade: 0.0 in /  0 mm    
Historical Graphs
 
 
Taulukkotiedot Helmikuu 6, 2017
Aika Lämpötila Kastepiste Ilmanpaine Tuuli Tuulen nopeus Tuulenpuuska Kosteus Sademäärä (tunneittain)
TemperatureC °F /  -17.8 °C DewpointC °F /  -17.8 °C PressurehPa in /  0 hPa Calm     Humidity % HourlyPrecipMM in /  0 mm
00:00 -5.1 °F /  -20.6 °C -6.4 °F /  -21.3 °C 1030.4 in /  34889.3 hPa East 3.2 mph /  5.1 km/h 11.3 mph /  18.2 km/h 90 % 0.0 in /  0 mm
00:15 -5.1 °F /  -20.6 °C -6.4 °F /  -21.3 °C 1030.7 in /  34899.5 hPa SSE 1.6 mph /  2.6 km/h 6.4 mph /  10.3 km/h 90 % 0.0 in /  0 mm
00:30 -5.1 °F /  -20.6 °C -6.4 °F /  -21.3 °C 1031.0 in /  34909.7 hPa SSE 1.6 mph /  2.6 km/h 8.0 mph /  12.9 km/h 90 % 0.0 in /  0 mm
00:45 -5.0 °F /  -20.6 °C -6.5 °F /  -21.4 °C 1031.4 in /  34923.2 hPa ESE 3.2 mph /  5.1 km/h 16.1 mph /  25.9 km/h 89 % 0.0 in /  0 mm
01:00 -5.0 °F /  -20.6 °C -6.7 °F /  -21.5 °C 1031.4 in /  34923.2 hPa Calm   6.4 mph /  10.3 km/h 88 % 0.0 in /  0 mm
01:15 -5.1 °F /  -20.6 °C -6.9 °F /  -21.6 °C 1031.7 in /  34933.4 hPa SSE 1.6 mph /  2.6 km/h 8.0 mph /  12.9 km/h 87 % 0.0 in /  0 mm
01:30 -5.1 °F /  -20.6 °C -6.9 °F /  -21.6 °C 1031.7 in /  34933.4 hPa Calm   6.4 mph /  10.3 km/h 87 % 0.0 in /  0 mm
01:45 -5.1 °F /  -20.6 °C -6.9 °F /  -21.6 °C 1031.7 in /  34933.4 hPa Calm   6.4 mph /  10.3 km/h 87 % 0.0 in /  0 mm
02:00 -5.1 °F /  -20.6 °C -6.9 °F /  -21.6 °C 1032.1 in /  34946.9 hPa Calm   3.2 mph /  5.1 km/h 87 % 0.0 in /  0 mm
02:15 -5.1 °F /  -20.6 °C -6.9 °F /  -21.6 °C 1032.4 in /  34957.1 hPa Calm   9.7 mph /  15.6 km/h 87 % 0.0 in /  0 mm
02:30 -5.1 °F /  -20.6 °C -6.8 °F /  -21.6 °C 1032.4 in /  34957.1 hPa Calm   6.4 mph /  10.3 km/h 88 % 0.0 in /  0 mm
02:45 -5.2 °F /  -20.7 °C -7.0 °F /  -21.7 °C 1032.7 in /  34967.2 hPa SE 1.6 mph /  2.6 km/h 6.4 mph /  10.3 km/h 87 % 0.0 in /  0 mm
03:00 -5.3 °F /  -20.7 °C -7.3 °F /  -21.8 °C 1032.7 in /  34967.2 hPa Calm   6.4 mph /  10.3 km/h 86 % 0.0 in /  0 mm
03:15 -5.4 °F /  -20.8 °C -7.6 °F /  -22 °C 1032.7 in /  34967.2 hPa Calm   6.4 mph /  10.3 km/h 85 % 0.0 in /  0 mm
03:30 -5.5 °F /  -20.8 °C -7.5 °F /  -21.9 °C 1033.1 in /  34980.8 hPa Calm   3.2 mph /  5.1 km/h 86 % 0.0 in /  0 mm
03:45 -5.6 °F /  -20.9 °C -7.5 °F /  -21.9 °C 1033.1 in /  34980.8 hPa Calm   4.8 mph /  7.7 km/h 86 % 0.0 in /  0 mm
04:00 -5.6 °F /  -20.9 °C -7.4 °F /  -21.9 °C 1033.4 in /  34990.9 hPa Calm   6.4 mph /  10.3 km/h 87 % 0.0 in /  0 mm
04:15 -5.7 °F /  -20.9 °C -7.7 °F /  -22.1 °C 1033.4 in /  34990.9 hPa Calm   8.0 mph /  12.9 km/h 86 % 0.0 in /  0 mm
04:30 -5.8 °F /  -21 °C -7.8 °F /  -22.1 °C 1033.7 in /  35001.1 hPa Calm   6.4 mph /  10.3 km/h 86 % 0.0 in /  0 mm
04:45 -6.1 °F /  -21.2 °C -8.1 °F /  -22.3 °C 1033.7 in /  35001.1 hPa Calm     86 % 0.0 in /  0 mm
05:00 -6.4 °F /  -21.3 °C -8.4 °F /  -22.4 °C 1033.7 in /  35001.1 hPa Calm     86 % 0.0 in /  0 mm
05:15 -6.8 °F /  -21.6 °C -8.8 °F /  -22.7 °C 1034.1 in /  35014.6 hPa Calm     86 % 0.0 in /  0 mm
05:30 -7.2 °F /  -21.8 °C -9.0 °F /  -22.8 °C 1034.4 in /  35024.8 hPa Calm     87 % 0.0 in /  0 mm
05:45 -7.4 °F /  -21.9 °C -9.0 °F /  -22.8 °C 1034.8 in /  35038.3 hPa Calm   1.6 mph /  2.6 km/h 88 % 0.0 in /  0 mm
06:00 -7.6 °F /  -22 °C -9.2 °F /  -22.9 °C 1034.8 in /  35038.3 hPa Calm     88 % 0.0 in /  0 mm
06:15 -7.7 °F /  -22.1 °C -9.3 °F /  -22.9 °C 1035.1 in /  35048.5 hPa Calm   1.6 mph /  2.6 km/h 88 % 0.0 in /  0 mm
06:30 -7.7 °F /  -22.1 °C -9.2 °F /  -22.9 °C 1035.1 in /  35048.5 hPa Calm   1.6 mph /  2.6 km/h 89 % 0.0 in /  0 mm
06:45 -7.6 °F /  -22 °C -9.2 °F /  -22.9 °C 1035.4 in /  35058.6 hPa Calm   3.2 mph /  5.1 km/h 88 % 0.0 in /  0 mm
07:00 -7.5 °F /  -21.9 °C -9.1 °F /  -22.8 °C 1035.4 in /  35058.6 hPa Calm   4.8 mph /  7.7 km/h 88 % 0.0 in /  0 mm
07:30 -7.4 °F /  -21.9 °C -9.3 °F /  -22.9 °C 1035.8 in /  35072.2 hPa Calm   6.4 mph /  10.3 km/h 86 % 0.0 in /  0 mm
07:45 -7.4 °F /  -21.9 °C -9.4 °F /  -23 °C 1036.1 in /  35082.3 hPa Calm   8.0 mph /  12.9 km/h 86 % 0.0 in /  0 mm
08:00 -7.7 °F /  -22.1 °C -9.8 °F /  -23.2 °C 1036.1 in /  35082.3 hPa Calm   6.4 mph /  10.3 km/h 85 % 0.0 in /  0 mm
08:15 -7.7 °F /  -22.1 °C -9.7 °F /  -23.2 °C 1036.5 in /  35095.9 hPa Calm   3.2 mph /  5.1 km/h 86 % 0.0 in /  0 mm
08:30 -7.8 °F /  -22.1 °C -9.7 °F /  -23.2 °C 1036.5 in /  35095.9 hPa Calm   6.4 mph /  10.3 km/h 86 % 0.0 in /  0 mm
08:45 -7.9 °F /  -22.2 °C -9.8 °F /  -23.2 °C 1036.8 in /  35106 hPa Calm     86 % 0.0 in /  0 mm
09:00 -8.1 °F /  -22.3 °C -10.0 °F /  -23.3 °C 1037.1 in /  35116.2 hPa Calm   1.6 mph /  2.6 km/h 86 % 0.0 in /  0 mm
09:15 -8.2 °F /  -22.3 °C -9.9 °F /  -23.3 °C 1037.5 in /  35129.8 hPa Calm   8.0 mph /  12.9 km/h 87 % 0.0 in /  0 mm
09:30 -8.3 °F /  -22.4 °C -10.2 °F /  -23.4 °C 1037.5 in /  35129.8 hPa Calm   1.6 mph /  2.6 km/h 86 % 0.0 in /  0 mm
09:45 -8.4 °F /  -22.4 °C -10.2 °F /  -23.4 °C 1037.8 in /  35139.9 hPa Calm   4.8 mph /  7.7 km/h 87 % 0.0 in /  0 mm
10:00 -8.5 °F /  -22.5 °C -10.3 °F /  -23.5 °C 1037.8 in /  35139.9 hPa Calm     87 % 0.0 in /  0 mm
10:15 -8.6 °F /  -22.6 °C -10.4 °F /  -23.6 °C 1037.8 in /  35139.9 hPa Calm   1.6 mph /  2.6 km/h 87 % 0.0 in /  0 mm
10:30 -8.6 °F /  -22.6 °C -10.4 °F /  -23.6 °C 1038.1 in /  35150.1 hPa Calm   4.8 mph /  7.7 km/h 87 % 0.0 in /  0 mm
10:45 -8.4 °F /  -22.4 °C -10.2 °F /  -23.4 °C 1038.5 in /  35163.6 hPa Calm   6.4 mph /  10.3 km/h 87 % 0.0 in /  0 mm
11:00 -8.2 °F /  -22.3 °C -10.0 °F /  -23.3 °C 1038.5 in /  35163.6 hPa Calm   6.4 mph /  10.3 km/h 87 % 0.0 in /  0 mm
11:15 -8.1 °F /  -22.3 °C -10.0 °F /  -23.3 °C 1038.8 in /  35173.8 hPa Calm   8.0 mph /  12.9 km/h 86 % 0.0 in /  0 mm
11:30 -7.8 °F /  -22.1 °C -9.9 °F /  -23.3 °C 1038.8 in /  35173.8 hPa SSE 1.6 mph /  2.6 km/h 9.7 mph /  15.6 km/h 85 % 0.0 in /  0 mm
11:45 -7.6 °F /  -22 °C -9.6 °F /  -23.1 °C 1038.8 in /  35173.8 hPa Calm   3.2 mph /  5.1 km/h 85 % 0.0 in /  0 mm
12:00 -7.3 °F /  -21.8 °C -9.5 °F /  -23.1 °C 1038.8 in /  35173.8 hPa Calm   8.0 mph /  12.9 km/h 84 % 0.0 in /  0 mm
12:15 -7.2 °F /  -21.8 °C -9.5 °F /  -23.1 °C 1039.2 in /  35187.3 hPa SSE 1.6 mph /  2.6 km/h 6.4 mph /  10.3 km/h 84 % 0.0 in /  0 mm
12:30 -7.2 °F /  -21.8 °C -9.5 °F /  -23.1 °C 1039.2 in /  35187.3 hPa SE 3.2 mph /  5.1 km/h 9.7 mph /  15.6 km/h 84 % 0.0 in /  0 mm
12:45 -7.2 °F /  -21.8 °C -9.6 °F /  -23.1 °C 1039.2 in /  35187.3 hPa SSE 1.6 mph /  2.6 km/h 11.3 mph /  18.2 km/h 83 % 0.0 in /  0 mm
13:00 -7.1 °F /  -21.7 °C -9.4 °F /  -23 °C 1039.2 in /  35187.3 hPa Calm   3.2 mph /  5.1 km/h 84 % 0.0 in /  0 mm
13:15 -7.1 °F /  -21.7 °C -9.3 °F /  -22.9 °C 1039.5 in /  35197.5 hPa Calm   6.4 mph /  10.3 km/h 84 % 0.0 in /  0 mm
13:30 -7.1 °F /  -21.7 °C -9.4 °F /  -23 °C 1039.5 in /  35197.5 hPa Calm   4.8 mph /  7.7 km/h 84 % 0.0 in /  0 mm
13:45 -7.1 °F /  -21.7 °C -9.2 °F /  -22.9 °C 1039.8 in /  35207.6 hPa Calm   3.2 mph /  5.1 km/h 85 % 0.0 in /  0 mm
14:15 -7.1 °F /  -21.7 °C -9.3 °F /  -22.9 °C 1039.8 in /  35207.6 hPa Calm   6.4 mph /  10.3 km/h 84 % 0.0 in /  0 mm
14:30 -7.1 °F /  -21.7 °C -9.3 °F /  -22.9 °C 1039.8 in /  35207.6 hPa Calm   8.0 mph /  12.9 km/h 84 % 0.0 in /  0 mm
14:45 -6.9 °F /  -21.6 °C -9.2 °F /  -22.9 °C 1040.2 in /  35221.2 hPa SSE 1.6 mph /  2.6 km/h 11.3 mph /  18.2 km/h 84 % 0.0 in /  0 mm
15:00 -6.9 °F /  -21.6 °C -9.7 °F /  -23.2 °C 1040.2 in /  35221.2 hPa SSE 1.6 mph /  2.6 km/h 6.4 mph /  10.3 km/h 81 % 0.0 in /  0 mm
15:15 -7.6 °F /  -22 °C -10.3 °F /  -23.5 °C 1040.5 in /  35231.3 hPa Calm   6.4 mph /  10.3 km/h 81 % 0.0 in /  0 mm
15:30 -7.9 °F /  -22.2 °C -10.3 °F /  -23.5 °C 1040.5 in /  35231.3 hPa Calm   1.6 mph /  2.6 km/h 83 % 0.0 in /  0 mm
15:45 -8.2 °F /  -22.3 °C -10.4 °F /  -23.6 °C 1040.5 in /  35231.3 hPa Calm     84 % 0.0 in /  0 mm
16:00 -8.6 °F /  -22.6 °C -10.6 °F /  -23.7 °C 1040.5 in /  35231.3 hPa Calm     85 % 0.0 in /  0 mm
16:15 -8.9 °F /  -22.7 °C -10.8 °F /  -23.8 °C 1040.9 in /  35244.9 hPa Calm     86 % 0.0 in /  0 mm
16:30 -9.2 °F /  -22.9 °C -10.9 °F /  -23.8 °C 1040.9 in /  35244.9 hPa Calm     87 % 0.0 in /  0 mm
16:45 -9.6 °F /  -23.1 °C -11.4 °F /  -24.1 °C 1041.2 in /  35255 hPa Calm     87 % 0.0 in /  0 mm
17:00 -9.9 °F /  -23.3 °C -11.6 °F /  -24.2 °C 1041.2 in /  35255 hPa Calm     88 % 0.0 in /  0 mm
17:15 -10.6 °F /  -23.7 °C -12.2 °F /  -24.6 °C 1041.2 in /  35255 hPa Calm     88 % 0.0 in /  0 mm
17:45 -11.4 °F /  -24.1 °C -12.9 °F /  -24.9 °C 1041.5 in /  35265.2 hPa Calm     89 % 0.0 in /  0 mm
18:00 -11.8 °F /  -24.3 °C -13.3 °F /  -25.2 °C 1041.5 in /  35265.2 hPa Calm     89 % 0.0 in /  0 mm
18:15 -12.2 °F /  -24.6 °C -13.6 °F /  -25.3 °C 1041.9 in /  35278.7 hPa Calm     89 % 0.0 in /  0 mm
18:30 -12.4 °F /  -24.7 °C -13.7 °F /  -25.4 °C 1041.9 in /  35278.7 hPa Calm     90 % 0.0 in /  0 mm
18:45 -12.4 °F /  -24.7 °C -13.7 °F /  -25.4 °C 1041.9 in /  35278.7 hPa Calm     90 % 0.0 in /  0 mm
19:00 -12.6 °F /  -24.8 °C -13.9 °F /  -25.5 °C 1041.9 in /  35278.7 hPa Calm     90 % 0.0 in /  0 mm
19:15 -12.8 °F /  -24.9 °C -14.1 °F /  -25.6 °C 1041.9 in /  35278.7 hPa Calm     90 % 0.0 in /  0 mm
19:30 -13.0 °F /  -25 °C -14.3 °F /  -25.7 °C 1042.2 in /  35288.9 hPa Calm     90 % 0.0 in /  0 mm
19:45 -13.1 °F /  -25.1 °C -14.4 °F /  -25.8 °C 1042.2 in /  35288.9 hPa Calm     90 % 0.0 in /  0 mm
20:00 -13.3 °F /  -25.2 °C -14.6 °F /  -25.9 °C 1042.2 in /  35288.9 hPa Calm     90 % 0.0 in /  0 mm
20:15 -13.4 °F /  -25.2 °C -14.7 °F /  -25.9 °C 1042.2 in /  35288.9 hPa Calm     90 % 0.0 in /  0 mm
20:30 -13.6 °F /  -25.3 °C -14.9 °F /  -26.1 °C 1042.5 in /  35299.1 hPa Calm     90 % 0.0 in /  0 mm
20:45 -13.6 °F /  -25.3 °C -14.8 °F /  -26 °C 1042.5 in /  35299.1 hPa Calm     90 % 0.0 in /  0 mm
21:00 -13.6 °F /  -25.3 °C -14.9 °F /  -26.1 °C 1042.5 in /  35299.1 hPa Calm     90 % 0.0 in /  0 mm
21:15 -13.8 °F /  -25.4 °C -15.3 °F /  -26.3 °C 1042.5 in /  35299.1 hPa Calm     89 % 0.0 in /  0 mm
21:30 -14.1 °F /  -25.6 °C -15.5 °F /  -26.4 °C 1042.9 in /  35312.6 hPa Calm     89 % 0.0 in /  0 mm
21:45 -14.3 °F /  -25.7 °C -15.7 °F /  -26.5 °C 1042.9 in /  35312.6 hPa Calm     89 % 0.0 in /  0 mm
22:00 -14.5 °F /  -25.8 °C -15.9 °F /  -26.6 °C 1043.2 in /  35322.8 hPa Calm     89 % 0.0 in /  0 mm
22:15 -14.7 °F /  -25.9 °C -16.1 °F /  -26.7 °C 1043.2 in /  35322.8 hPa Calm     89 % 0.0 in /  0 mm
22:30 -15.0 °F /  -26.1 °C -16.4 °F /  -26.9 °C 1043.2 in /  35322.8 hPa Calm     89 % 0.0 in /  0 mm
22:45 -15.2 °F /  -26.2 °C -16.6 °F /  -27 °C 1043.2 in /  35322.8 hPa Calm     89 % 0.0 in /  0 mm
23:00 -15.3 °F /  -26.3 °C -16.7 °F /  -27.1 °C 1043.2 in /  35322.8 hPa Calm     89 % 0.0 in /  0 mm
23:15 -15.4 °F /  -26.3 °C -16.8 °F /  -27.1 °C 1043.6 in /  35336.3 hPa Calm     89 % 0.0 in /  0 mm
23:30 -15.5 °F /  -26.4 °C -17.0 °F /  -27.2 °C 1043.6 in /  35336.3 hPa Calm     88 % 0.0 in /  0 mm
23:45 -15.7 °F /  -26.5 °C -17.3 °F /  -27.4 °C 1043.9 in /  35346.5 hPa Calm     88 % 0.0 in /  0 mm
Esan sääasema
Terveisin Weather Underground - 2.75 mb

Alkuperäinen skripti  Jim McMurry - jmcmurry@mwt.net Sovitettu myös templatelle  Wim van der Kuil - Leuven-Template.eu

Laitteet joita käytämme:

Sääasema
Davis VP2

Sääasemaohjelma
Cumulus

Sääaseman tietokone
Asus EeePC

Palveluntarjoaja
Suncomet

Davis VP2

Cumulus

Asus EeePC

Suncomet